<?xml version="1.0" encoding="UTF-8" standalone="no" ?>
<gpx xmlns="http://www.topografix.com/GPX/1/1" xmlns:xsi="http://www.w3.org/2001/XMLSchema-instance" xsi:schemaLocation="http://www.topografix.com/GPX/1/1 http://www.topografix.com/GPX/1/1/gpx.xsd" version="1.1" creator="VisuGPX - https://www.visugpx.com">
  <metadata>
    <name>11145872-Circuit 11 Boucle Grandrieu</name>
  </metadata>
  <trk>
    <name><![CDATA[11145872-Circuit 11 Boucle Grandrieu]]></name>
    <trkseg>
      <trkpt lat="44.7833" lon="3.63376">
        <ele>1167</ele>
        <time>2020-03-22T16:43:49Z</time>
      </trkpt>
      <trkpt lat="44.7836" lon="3.63269">
        <ele>1176</ele>
        <time>2020-03-22T16:44:08Z</time>
      </trkpt>
      <trkpt lat="44.78232" lon="3.6314">
        <ele>1183</ele>
        <time>2020-03-22T16:44:45Z</time>
      </trkpt>
      <trkpt lat="44.78159" lon="3.63063">
        <ele>1185</ele>
        <time>2020-03-22T16:45:06Z</time>
      </trkpt>
      <trkpt lat="44.78104" lon="3.63003">
        <ele>1187</ele>
        <time>2020-03-22T16:45:22Z</time>
      </trkpt>
      <trkpt lat="44.78019" lon="3.62844">
        <ele>1184</ele>
        <time>2020-03-22T16:45:55Z</time>
      </trkpt>
      <trkpt lat="44.7794" lon="3.62831">
        <ele>1183</ele>
        <time>2020-03-22T16:46:14Z</time>
      </trkpt>
      <trkpt lat="44.77873" lon="3.62733">
        <ele>1182</ele>
        <time>2020-03-22T16:46:36Z</time>
      </trkpt>
      <trkpt lat="44.77803" lon="3.62604">
        <ele>1182</ele>
        <time>2020-03-22T16:47:03Z</time>
      </trkpt>
      <trkpt lat="44.77583" lon="3.62406">
        <ele>1174</ele>
        <time>2020-03-22T16:48:04Z</time>
      </trkpt>
      <trkpt lat="44.77632" lon="3.62273">
        <ele>1179</ele>
        <time>2020-03-22T16:48:29Z</time>
      </trkpt>
      <trkpt lat="44.77608" lon="3.62196">
        <ele>1178</ele>
        <time>2020-03-22T16:48:43Z</time>
      </trkpt>
      <trkpt lat="44.77617" lon="3.62084">
        <ele>1181</ele>
        <time>2020-03-22T16:49:02Z</time>
      </trkpt>
      <trkpt lat="44.77669" lon="3.61878">
        <ele>1183</ele>
        <time>2020-03-22T16:49:38Z</time>
      </trkpt>
      <trkpt lat="44.77638" lon="3.6172">
        <ele>1181</ele>
        <time>2020-03-22T16:50:05Z</time>
      </trkpt>
      <trkpt lat="44.77641" lon="3.61651">
        <ele>1183</ele>
        <time>2020-03-22T16:50:17Z</time>
      </trkpt>
      <trkpt lat="44.7766" lon="3.61527">
        <ele>1180</ele>
        <time>2020-03-22T16:50:38Z</time>
      </trkpt>
      <trkpt lat="44.77589" lon="3.61411">
        <ele>1175</ele>
        <time>2020-03-22T16:51:03Z</time>
      </trkpt>
      <trkpt lat="44.77462" lon="3.61501">
        <ele>1180</ele>
        <time>2020-03-22T16:51:36Z</time>
      </trkpt>
      <trkpt lat="44.77404" lon="3.61574">
        <ele>1185</ele>
        <time>2020-03-22T16:51:55Z</time>
      </trkpt>
      <trkpt lat="44.77343" lon="3.61672">
        <ele>1190</ele>
        <time>2020-03-22T16:52:16Z</time>
      </trkpt>
      <trkpt lat="44.77187" lon="3.6178">
        <ele>1199</ele>
        <time>2020-03-22T16:52:57Z</time>
      </trkpt>
      <trkpt lat="44.77108" lon="3.61814">
        <ele>1200</ele>
        <time>2020-03-22T16:53:16Z</time>
      </trkpt>
      <trkpt lat="44.76956" lon="3.61788">
        <ele>1207</ele>
        <time>2020-03-22T16:53:52Z</time>
      </trkpt>
      <trkpt lat="44.76791" lon="3.6172">
        <ele>1209</ele>
        <time>2020-03-22T16:54:32Z</time>
      </trkpt>
      <trkpt lat="44.76718" lon="3.61642">
        <ele>1207</ele>
        <time>2020-03-22T16:54:53Z</time>
      </trkpt>
      <trkpt lat="44.76669" lon="3.61565">
        <ele>1203</ele>
        <time>2020-03-22T16:55:10Z</time>
      </trkpt>
      <trkpt lat="44.76624" lon="3.61505">
        <ele>1204</ele>
        <time>2020-03-22T16:55:25Z</time>
      </trkpt>
      <trkpt lat="44.76487" lon="3.61402">
        <ele>1210</ele>
        <time>2020-03-22T16:56:01Z</time>
      </trkpt>
      <trkpt lat="44.76371" lon="3.61436">
        <ele>1218</ele>
        <time>2020-03-22T16:56:29Z</time>
      </trkpt>
      <trkpt lat="44.76231" lon="3.61385">
        <ele>1224</ele>
        <time>2020-03-22T16:57:03Z</time>
      </trkpt>
      <trkpt lat="44.76115" lon="3.61346">
        <ele>1232</ele>
        <time>2020-03-22T16:57:30Z</time>
      </trkpt>
      <trkpt lat="44.76005" lon="3.61359">
        <ele>1238</ele>
        <time>2020-03-22T16:57:56Z</time>
      </trkpt>
      <trkpt lat="44.75911" lon="3.61359">
        <ele>1238</ele>
        <time>2020-03-22T16:58:18Z</time>
      </trkpt>
      <trkpt lat="44.75831" lon="3.61402">
        <ele>1236</ele>
        <time>2020-03-22T16:58:38Z</time>
      </trkpt>
      <trkpt lat="44.75749" lon="3.61325">
        <ele>1232</ele>
        <time>2020-03-22T16:59:01Z</time>
      </trkpt>
      <trkpt lat="44.75618" lon="3.61278">
        <ele>1222</ele>
        <time>2020-03-22T16:59:33Z</time>
      </trkpt>
      <trkpt lat="44.75487" lon="3.61316">
        <ele>1212</ele>
        <time>2020-03-22T17:00:04Z</time>
      </trkpt>
      <trkpt lat="44.75457" lon="3.61269">
        <ele>1212</ele>
        <time>2020-03-22T17:00:14Z</time>
      </trkpt>
      <trkpt lat="44.75393" lon="3.61299">
        <ele>1213</ele>
        <time>2020-03-22T17:00:30Z</time>
      </trkpt>
      <trkpt lat="44.7528" lon="3.61282">
        <ele>1223</ele>
        <time>2020-03-22T17:00:57Z</time>
      </trkpt>
      <trkpt lat="44.75198" lon="3.61325">
        <ele>1227</ele>
        <time>2020-03-22T17:01:17Z</time>
      </trkpt>
      <trkpt lat="44.74929" lon="3.61282">
        <ele>1240</ele>
        <time>2020-03-22T17:02:20Z</time>
      </trkpt>
      <trkpt lat="44.74817" lon="3.61209">
        <ele>1246</ele>
        <time>2020-03-22T17:02:49Z</time>
      </trkpt>
      <trkpt lat="44.74682" lon="3.61188">
        <ele>1244</ele>
        <time>2020-03-22T17:03:21Z</time>
      </trkpt>
      <trkpt lat="44.74606" lon="3.61188">
        <ele>1242</ele>
        <time>2020-03-22T17:03:39Z</time>
      </trkpt>
      <trkpt lat="44.74475" lon="3.61162">
        <ele>1238</ele>
        <time>2020-03-22T17:04:10Z</time>
      </trkpt>
      <trkpt lat="44.7446" lon="3.61218">
        <ele>1233</ele>
        <time>2020-03-22T17:04:20Z</time>
      </trkpt>
      <trkpt lat="44.74411" lon="3.61239">
        <ele>1231</ele>
        <time>2020-03-22T17:04:32Z</time>
      </trkpt>
      <trkpt lat="44.74338" lon="3.61325">
        <ele>1226</ele>
        <time>2020-03-22T17:04:54Z</time>
      </trkpt>
      <trkpt lat="44.74186" lon="3.61218">
        <ele>1234</ele>
        <time>2020-03-22T17:05:33Z</time>
      </trkpt>
      <trkpt lat="44.74106" lon="3.61179">
        <ele>1235</ele>
        <time>2020-03-22T17:05:53Z</time>
      </trkpt>
      <trkpt lat="44.73991" lon="3.60857">
        <ele>1229</ele>
        <time>2020-03-22T17:06:53Z</time>
      </trkpt>
      <trkpt lat="44.73927" lon="3.60655">
        <ele>1226</ele>
        <time>2020-03-22T17:07:30Z</time>
      </trkpt>
      <trkpt lat="44.73838" lon="3.60449">
        <ele>1241</ele>
        <time>2020-03-22T17:08:10Z</time>
      </trkpt>
      <trkpt lat="44.73677" lon="3.60153">
        <ele>1254</ele>
        <time>2020-03-22T17:09:12Z</time>
      </trkpt>
      <trkpt lat="44.73567" lon="3.6005">
        <ele>1242</ele>
        <time>2020-03-22T17:09:42Z</time>
      </trkpt>
      <trkpt lat="44.73533" lon="3.59904">
        <ele>1245</ele>
        <time>2020-03-22T17:10:08Z</time>
      </trkpt>
      <trkpt lat="44.73475" lon="3.59836">
        <ele>1252</ele>
        <time>2020-03-22T17:10:25Z</time>
      </trkpt>
      <trkpt lat="44.73439" lon="3.5975">
        <ele>1260</ele>
        <time>2020-03-22T17:10:42Z</time>
      </trkpt>
      <trkpt lat="44.73363" lon="3.59694">
        <ele>1265</ele>
        <time>2020-03-22T17:11:02Z</time>
      </trkpt>
      <trkpt lat="44.73338" lon="3.59587">
        <ele>1267</ele>
        <time>2020-03-22T17:11:21Z</time>
      </trkpt>
      <trkpt lat="44.73289" lon="3.59278">
        <ele>1282</ele>
        <time>2020-03-22T17:12:13Z</time>
      </trkpt>
      <trkpt lat="44.73192" lon="3.59158">
        <ele>1287</ele>
        <time>2020-03-22T17:12:43Z</time>
      </trkpt>
      <trkpt lat="44.73064" lon="3.59136">
        <ele>1272</ele>
        <time>2020-03-22T17:13:14Z</time>
      </trkpt>
      <trkpt lat="44.72985" lon="3.59136">
        <ele>1263</ele>
        <time>2020-03-22T17:13:32Z</time>
      </trkpt>
      <trkpt lat="44.7293" lon="3.59149">
        <ele>1256</ele>
        <time>2020-03-22T17:13:45Z</time>
      </trkpt>
      <trkpt lat="44.72853" lon="3.59368">
        <ele>1263</ele>
        <time>2020-03-22T17:14:26Z</time>
      </trkpt>
      <trkpt lat="44.7278" lon="3.59673">
        <ele>1280</ele>
        <time>2020-03-22T17:15:19Z</time>
      </trkpt>
      <trkpt lat="44.72728" lon="3.59909">
        <ele>1292</ele>
        <time>2020-03-22T17:16:00Z</time>
      </trkpt>
      <trkpt lat="44.72582" lon="3.6011">
        <ele>1297</ele>
        <time>2020-03-22T17:16:48Z</time>
      </trkpt>
      <trkpt lat="44.72475" lon="3.60222">
        <ele>1298</ele>
        <time>2020-03-22T17:17:19Z</time>
      </trkpt>
      <trkpt lat="44.72363" lon="3.60295">
        <ele>1296</ele>
        <time>2020-03-22T17:17:48Z</time>
      </trkpt>
      <trkpt lat="44.72283" lon="3.60299">
        <ele>1298</ele>
        <time>2020-03-22T17:18:06Z</time>
      </trkpt>
      <trkpt lat="44.72222" lon="3.60462">
        <ele>1297</ele>
        <time>2020-03-22T17:18:37Z</time>
      </trkpt>
      <trkpt lat="44.72103" lon="3.60595">
        <ele>1304</ele>
        <time>2020-03-22T17:19:12Z</time>
      </trkpt>
      <trkpt lat="44.72006" lon="3.6063">
        <ele>1303</ele>
        <time>2020-03-22T17:19:36Z</time>
      </trkpt>
      <trkpt lat="44.71899" lon="3.60655">
        <ele>1295</ele>
        <time>2020-03-22T17:20:01Z</time>
      </trkpt>
      <trkpt lat="44.71737" lon="3.60797">
        <ele>1279</ele>
        <time>2020-03-22T17:20:46Z</time>
      </trkpt>
      <trkpt lat="44.71701" lon="3.60926">
        <ele>1277</ele>
        <time>2020-03-22T17:21:09Z</time>
      </trkpt>
      <trkpt lat="44.71658" lon="3.61059">
        <ele>1276</ele>
        <time>2020-03-22T17:21:33Z</time>
      </trkpt>
      <trkpt lat="44.71826" lon="3.61089">
        <ele>1289</ele>
        <time>2020-03-22T17:22:12Z</time>
      </trkpt>
      <trkpt lat="44.71951" lon="3.61183">
        <ele>1291</ele>
        <time>2020-03-22T17:22:46Z</time>
      </trkpt>
      <trkpt lat="44.72167" lon="3.61196">
        <ele>1289</ele>
        <time>2020-03-22T17:23:36Z</time>
      </trkpt>
      <trkpt lat="44.72366" lon="3.61213">
        <ele>1272</ele>
        <time>2020-03-22T17:24:23Z</time>
      </trkpt>
      <trkpt lat="44.72512" lon="3.61299">
        <ele>1255</ele>
        <time>2020-03-22T17:25:00Z</time>
      </trkpt>
      <trkpt lat="44.72594" lon="3.61406">
        <ele>1252</ele>
        <time>2020-03-22T17:25:26Z</time>
      </trkpt>
      <trkpt lat="44.72981" lon="3.61441">
        <ele>1240</ele>
        <time>2020-03-22T17:26:56Z</time>
      </trkpt>
      <trkpt lat="44.73055" lon="3.61578">
        <ele>1245</ele>
        <time>2020-03-22T17:27:25Z</time>
      </trkpt>
      <trkpt lat="44.73027" lon="3.62093">
        <ele>1271</ele>
        <time>2020-03-22T17:28:50Z</time>
      </trkpt>
      <trkpt lat="44.7307" lon="3.62342">
        <ele>1272</ele>
        <time>2020-03-22T17:29:33Z</time>
      </trkpt>
      <trkpt lat="44.72719" lon="3.62313">
        <ele>1271</ele>
        <time>2020-03-22T17:30:55Z</time>
      </trkpt>
      <trkpt lat="44.72884" lon="3.62569">
        <ele>1268</ele>
        <time>2020-03-22T17:31:52Z</time>
      </trkpt>
      <trkpt lat="44.72991" lon="3.62672">
        <ele>1265</ele>
        <time>2020-03-22T17:32:23Z</time>
      </trkpt>
      <trkpt lat="44.73143" lon="3.62857">
        <ele>1257</ele>
        <time>2020-03-22T17:33:10Z</time>
      </trkpt>
      <trkpt lat="44.73225" lon="3.63072">
        <ele>1257</ele>
        <time>2020-03-22T17:33:50Z</time>
      </trkpt>
      <trkpt lat="44.73314" lon="3.63222">
        <ele>1257</ele>
        <time>2020-03-22T17:34:23Z</time>
      </trkpt>
      <trkpt lat="44.73463" lon="3.6329">
        <ele>1247</ele>
        <time>2020-03-22T17:34:59Z</time>
      </trkpt>
      <trkpt lat="44.73619" lon="3.63368">
        <ele>1237</ele>
        <time>2020-03-22T17:35:38Z</time>
      </trkpt>
      <trkpt lat="44.7371" lon="3.63484">
        <ele>1228</ele>
        <time>2020-03-22T17:36:06Z</time>
      </trkpt>
      <trkpt lat="44.73728" lon="3.63518">
        <ele>1226</ele>
        <time>2020-03-22T17:36:14Z</time>
      </trkpt>
      <trkpt lat="44.73701" lon="3.63587">
        <ele>1227</ele>
        <time>2020-03-22T17:36:27Z</time>
      </trkpt>
      <trkpt lat="44.73725" lon="3.63668">
        <ele>1236</ele>
        <time>2020-03-22T17:36:41Z</time>
      </trkpt>
      <trkpt lat="44.73655" lon="3.63857">
        <ele>1252</ele>
        <time>2020-03-22T17:37:16Z</time>
      </trkpt>
      <trkpt lat="44.7367" lon="3.63968">
        <ele>1256</ele>
        <time>2020-03-22T17:37:35Z</time>
      </trkpt>
      <trkpt lat="44.73616" lon="3.64033">
        <ele>1258</ele>
        <time>2020-03-22T17:37:52Z</time>
      </trkpt>
      <trkpt lat="44.73521" lon="3.63999">
        <ele>1262</ele>
        <time>2020-03-22T17:38:15Z</time>
      </trkpt>
      <trkpt lat="44.7335" lon="3.6393">
        <ele>1261</ele>
        <time>2020-03-22T17:38:56Z</time>
      </trkpt>
      <trkpt lat="44.73268" lon="3.6393">
        <ele>1256</ele>
        <time>2020-03-22T17:39:15Z</time>
      </trkpt>
      <trkpt lat="44.73049" lon="3.6381">
        <ele>1248</ele>
        <time>2020-03-22T17:40:10Z</time>
      </trkpt>
      <trkpt lat="44.72985" lon="3.63831">
        <ele>1251</ele>
        <time>2020-03-22T17:40:26Z</time>
      </trkpt>
      <trkpt lat="44.72866" lon="3.63844">
        <ele>1255</ele>
        <time>2020-03-22T17:40:54Z</time>
      </trkpt>
      <trkpt lat="44.7278" lon="3.63981">
        <ele>1262</ele>
        <time>2020-03-22T17:41:24Z</time>
      </trkpt>
      <trkpt lat="44.72744" lon="3.63981">
        <ele>1263</ele>
        <time>2020-03-22T17:41:32Z</time>
      </trkpt>
      <trkpt lat="44.7267" lon="3.64033">
        <ele>1266</ele>
        <time>2020-03-22T17:41:52Z</time>
      </trkpt>
      <trkpt lat="44.72664" lon="3.64106">
        <ele>1270</ele>
        <time>2020-03-22T17:42:04Z</time>
      </trkpt>
      <trkpt lat="44.72805" lon="3.6423">
        <ele>1276</ele>
        <time>2020-03-22T17:42:43Z</time>
      </trkpt>
      <trkpt lat="44.72899" lon="3.64307">
        <ele>1278</ele>
        <time>2020-03-22T17:43:08Z</time>
      </trkpt>
      <trkpt lat="44.72951" lon="3.64604">
        <ele>1290</ele>
        <time>2020-03-22T17:43:59Z</time>
      </trkpt>
      <trkpt lat="44.73006" lon="3.64998">
        <ele>1302</ele>
        <time>2020-03-22T17:45:05Z</time>
      </trkpt>
      <trkpt lat="44.73039" lon="3.6523">
        <ele>1312</ele>
        <time>2020-03-22T17:45:45Z</time>
      </trkpt>
      <trkpt lat="44.73033" lon="3.6538">
        <ele>1313</ele>
        <time>2020-03-22T17:46:10Z</time>
      </trkpt>
      <trkpt lat="44.73" lon="3.65591">
        <ele>1316</ele>
        <time>2020-03-22T17:46:45Z</time>
      </trkpt>
      <trkpt lat="44.73" lon="3.65719">
        <ele>1315</ele>
        <time>2020-03-22T17:47:07Z</time>
      </trkpt>
      <trkpt lat="44.72978" lon="3.65805">
        <ele>1316</ele>
        <time>2020-03-22T17:47:22Z</time>
      </trkpt>
      <trkpt lat="44.73012" lon="3.65917">
        <ele>1316</ele>
        <time>2020-03-22T17:47:42Z</time>
      </trkpt>
      <trkpt lat="44.73021" lon="3.66191">
        <ele>1315</ele>
        <time>2020-03-22T17:48:27Z</time>
      </trkpt>
      <trkpt lat="44.73137" lon="3.66466">
        <ele>1306</ele>
        <time>2020-03-22T17:49:21Z</time>
      </trkpt>
      <trkpt lat="44.73219" lon="3.66801">
        <ele>1302</ele>
        <time>2020-03-22T17:50:19Z</time>
      </trkpt>
      <trkpt lat="44.73292" lon="3.67088">
        <ele>1298</ele>
        <time>2020-03-22T17:51:10Z</time>
      </trkpt>
      <trkpt lat="44.73353" lon="3.6747">
        <ele>1300</ele>
        <time>2020-03-22T17:52:15Z</time>
      </trkpt>
      <trkpt lat="44.73427" lon="3.67342">
        <ele>1298</ele>
        <time>2020-03-22T17:52:42Z</time>
      </trkpt>
      <trkpt lat="44.73555" lon="3.67286">
        <ele>1291</ele>
        <time>2020-03-22T17:53:14Z</time>
      </trkpt>
      <trkpt lat="44.73613" lon="3.6717">
        <ele>1289</ele>
        <time>2020-03-22T17:53:37Z</time>
      </trkpt>
      <trkpt lat="44.7367" lon="3.6693">
        <ele>1288</ele>
        <time>2020-03-22T17:54:19Z</time>
      </trkpt>
      <trkpt lat="44.73905" lon="3.67037">
        <ele>1278</ele>
        <time>2020-03-22T17:55:17Z</time>
      </trkpt>
      <trkpt lat="44.73994" lon="3.67179">
        <ele>1271</ele>
        <time>2020-03-22T17:55:48Z</time>
      </trkpt>
      <trkpt lat="44.74173" lon="3.67445">
        <ele>1254</ele>
        <time>2020-03-22T17:56:49Z</time>
      </trkpt>
      <trkpt lat="44.74362" lon="3.67719">
        <ele>1246</ele>
        <time>2020-03-22T17:57:52Z</time>
      </trkpt>
      <trkpt lat="44.7449" lon="3.67548">
        <ele>1241</ele>
        <time>2020-03-22T17:58:33Z</time>
      </trkpt>
      <trkpt lat="44.74628" lon="3.67518">
        <ele>1237</ele>
        <time>2020-03-22T17:59:06Z</time>
      </trkpt>
      <trkpt lat="44.7481" lon="3.67397">
        <ele>1223</ele>
        <time>2020-03-22T17:59:53Z</time>
      </trkpt>
      <trkpt lat="44.74884" lon="3.67273">
        <ele>1211</ele>
        <time>2020-03-22T18:00:20Z</time>
      </trkpt>
      <trkpt lat="44.74881" lon="3.67183">
        <ele>1204</ele>
        <time>2020-03-22T18:00:35Z</time>
      </trkpt>
      <trkpt lat="44.7496" lon="3.6711">
        <ele>1191</ele>
        <time>2020-03-22T18:00:57Z</time>
      </trkpt>
      <trkpt lat="44.75112" lon="3.67101">
        <ele>1189</ele>
        <time>2020-03-22T18:01:33Z</time>
      </trkpt>
      <trkpt lat="44.75167" lon="3.6699">
        <ele>1196</ele>
        <time>2020-03-22T18:01:55Z</time>
      </trkpt>
      <trkpt lat="44.75231" lon="3.66874">
        <ele>1203</ele>
        <time>2020-03-22T18:02:19Z</time>
      </trkpt>
      <trkpt lat="44.7531" lon="3.66715">
        <ele>1211</ele>
        <time>2020-03-22T18:02:51Z</time>
      </trkpt>
      <trkpt lat="44.75435" lon="3.66573">
        <ele>1215</ele>
        <time>2020-03-22T18:03:29Z</time>
      </trkpt>
      <trkpt lat="44.75554" lon="3.66415">
        <ele>1208</ele>
        <time>2020-03-22T18:04:07Z</time>
      </trkpt>
      <trkpt lat="44.75639" lon="3.66294">
        <ele>1204</ele>
        <time>2020-03-22T18:04:35Z</time>
      </trkpt>
      <trkpt lat="44.75618" lon="3.66239">
        <ele>1206</ele>
        <time>2020-03-22T18:04:46Z</time>
      </trkpt>
      <trkpt lat="44.75649" lon="3.66123">
        <ele>1207</ele>
        <time>2020-03-22T18:05:06Z</time>
      </trkpt>
      <trkpt lat="44.75688" lon="3.66046">
        <ele>1213</ele>
        <time>2020-03-22T18:05:22Z</time>
      </trkpt>
      <trkpt lat="44.75834" lon="3.65973">
        <ele>1223</ele>
        <time>2020-03-22T18:05:58Z</time>
      </trkpt>
      <trkpt lat="44.7599" lon="3.659">
        <ele>1238</ele>
        <time>2020-03-22T18:06:37Z</time>
      </trkpt>
      <trkpt lat="44.7606" lon="3.65646">
        <ele>1243</ele>
        <time>2020-03-22T18:07:22Z</time>
      </trkpt>
      <trkpt lat="44.76103" lon="3.65518">
        <ele>1243</ele>
        <time>2020-03-22T18:07:45Z</time>
      </trkpt>
      <trkpt lat="44.761" lon="3.65385">
        <ele>1242</ele>
        <time>2020-03-22T18:08:07Z</time>
      </trkpt>
      <trkpt lat="44.76157" lon="3.65316">
        <ele>1241</ele>
        <time>2020-03-22T18:08:25Z</time>
      </trkpt>
      <trkpt lat="44.76185" lon="3.65123">
        <ele>1240</ele>
        <time>2020-03-22T18:08:58Z</time>
      </trkpt>
      <trkpt lat="44.76555" lon="3.65067">
        <ele>1246</ele>
        <time>2020-03-22T18:10:24Z</time>
      </trkpt>
      <trkpt lat="44.76762" lon="3.65063">
        <ele>1240</ele>
        <time>2020-03-22T18:11:13Z</time>
      </trkpt>
      <trkpt lat="44.77067" lon="3.6514">
        <ele>1219</ele>
        <time>2020-03-22T18:12:25Z</time>
      </trkpt>
      <trkpt lat="44.77146" lon="3.65252">
        <ele>1214</ele>
        <time>2020-03-22T18:12:51Z</time>
      </trkpt>
      <trkpt lat="44.77295" lon="3.652">
        <ele>1205</ele>
        <time>2020-03-22T18:13:27Z</time>
      </trkpt>
      <trkpt lat="44.77286" lon="3.6514">
        <ele>1201</ele>
        <time>2020-03-22T18:13:37Z</time>
      </trkpt>
      <trkpt lat="44.77323" lon="3.6508">
        <ele>1196</ele>
        <time>2020-03-22T18:13:51Z</time>
      </trkpt>
      <trkpt lat="44.77307" lon="3.65016">
        <ele>1195</ele>
        <time>2020-03-22T18:14:02Z</time>
      </trkpt>
      <trkpt lat="44.77487" lon="3.64805">
        <ele>1176</ele>
        <time>2020-03-22T18:14:56Z</time>
      </trkpt>
      <trkpt lat="44.77524" lon="3.64715">
        <ele>1171</ele>
        <time>2020-03-22T18:15:14Z</time>
      </trkpt>
      <trkpt lat="44.77567" lon="3.64751">
        <ele>1166</ele>
        <time>2020-03-22T18:15:25Z</time>
      </trkpt>
      <trkpt lat="44.77664" lon="3.64616">
        <ele>1170</ele>
        <time>2020-03-22T18:15:57Z</time>
      </trkpt>
      <trkpt lat="44.77743" lon="3.64538">
        <ele>1184</ele>
        <time>2020-03-22T18:16:20Z</time>
      </trkpt>
      <trkpt lat="44.77846" lon="3.64635">
        <ele>1180</ele>
        <time>2020-03-22T18:16:49Z</time>
      </trkpt>
      <trkpt lat="44.77926" lon="3.64662">
        <ele>1184</ele>
        <time>2020-03-22T18:17:08Z</time>
      </trkpt>
      <trkpt lat="44.77995" lon="3.64665">
        <ele>1188</ele>
        <time>2020-03-22T18:17:24Z</time>
      </trkpt>
      <trkpt lat="44.78079" lon="3.64662">
        <ele>1191</ele>
        <time>2020-03-22T18:17:44Z</time>
      </trkpt>
      <trkpt lat="44.78079" lon="3.6462">
        <ele>1195</ele>
        <time>2020-03-22T18:17:51Z</time>
      </trkpt>
      <trkpt lat="44.78061" lon="3.64583">
        <ele>1198</ele>
        <time>2020-03-22T18:17:58Z</time>
      </trkpt>
      <trkpt lat="44.7808" lon="3.64548">
        <ele>1203</ele>
        <time>2020-03-22T18:18:05Z</time>
      </trkpt>
      <trkpt lat="44.78066" lon="3.64377">
        <ele>1212</ele>
        <time>2020-03-22T18:18:34Z</time>
      </trkpt>
      <trkpt lat="44.78176" lon="3.64246">
        <ele>1216</ele>
        <time>2020-03-22T18:19:07Z</time>
      </trkpt>
      <trkpt lat="44.78227" lon="3.64186">
        <ele>1212</ele>
        <time>2020-03-22T18:19:23Z</time>
      </trkpt>
      <trkpt lat="44.7829" lon="3.64162">
        <ele>1208</ele>
        <time>2020-03-22T18:19:38Z</time>
      </trkpt>
      <trkpt lat="44.78365" lon="3.64043">
        <ele>1195</ele>
        <time>2020-03-22T18:20:05Z</time>
      </trkpt>
      <trkpt lat="44.78529" lon="3.63901">
        <ele>1180</ele>
        <time>2020-03-22T18:20:50Z</time>
      </trkpt>
      <trkpt lat="44.78572" lon="3.63755">
        <ele>1154</ele>
        <time>2020-03-22T18:21:16Z</time>
      </trkpt>
      <trkpt lat="44.78671" lon="3.63709">
        <ele>1149</ele>
        <time>2020-03-22T18:21:40Z</time>
      </trkpt>
      <trkpt lat="44.78761" lon="3.63682">
        <ele>1138</ele>
        <time>2020-03-22T18:22:02Z</time>
      </trkpt>
      <trkpt lat="44.78699" lon="3.63627">
        <ele>1133</ele>
        <time>2020-03-22T18:22:19Z</time>
      </trkpt>
      <trkpt lat="44.78555" lon="3.63567">
        <ele>1127</ele>
        <time>2020-03-22T18:22:54Z</time>
      </trkpt>
      <trkpt lat="44.78527" lon="3.63518">
        <ele>1134</ele>
        <time>2020-03-22T18:23:04Z</time>
      </trkpt>
      <trkpt lat="44.78574" lon="3.6343">
        <ele>1142</ele>
        <time>2020-03-22T18:23:22Z</time>
      </trkpt>
      <trkpt lat="44.78673" lon="3.63397">
        <ele>1134</ele>
        <time>2020-03-22T18:23:46Z</time>
      </trkpt>
      <trkpt lat="44.78661" lon="3.63357">
        <ele>1140</ele>
        <time>2020-03-22T18:23:53Z</time>
      </trkpt>
      <trkpt lat="44.78627" lon="3.63297">
        <ele>1146</ele>
        <time>2020-03-22T18:24:06Z</time>
      </trkpt>
      <trkpt lat="44.78615" lon="3.63265">
        <ele>1146</ele>
        <time>2020-03-22T18:24:12Z</time>
      </trkpt>
      <trkpt lat="44.78539" lon="3.63141">
        <ele>1148</ele>
        <time>2020-03-22T18:24:39Z</time>
      </trkpt>
      <trkpt lat="44.78522" lon="3.6299">
        <ele>1144</ele>
        <time>2020-03-22T18:25:05Z</time>
      </trkpt>
      <trkpt lat="44.78522" lon="3.62911">
        <ele>1140</ele>
        <time>2020-03-22T18:25:18Z</time>
      </trkpt>
      <trkpt lat="44.78438" lon="3.62804">
        <ele>1141</ele>
        <time>2020-03-22T18:25:44Z</time>
      </trkpt>
      <trkpt lat="44.7833" lon="3.62829">
        <ele>1154</ele>
        <time>2020-03-22T18:26:10Z</time>
      </trkpt>
      <trkpt lat="44.78231" lon="3.62769">
        <ele>1157</ele>
        <time>2020-03-22T18:26:35Z</time>
      </trkpt>
      <trkpt lat="44.78132" lon="3.62754">
        <ele>1169</ele>
        <time>2020-03-22T18:26:58Z</time>
      </trkpt>
      <trkpt lat="44.7809" lon="3.62744">
        <ele>1177</ele>
        <time>2020-03-22T18:27:08Z</time>
      </trkpt>
      <trkpt lat="44.77986" lon="3.62765">
        <ele>1185</ele>
        <time>2020-03-22T18:27:33Z</time>
      </trkpt>
      <trkpt lat="44.78009" lon="3.62857">
        <ele>1185</ele>
        <time>2020-03-22T18:27:49Z</time>
      </trkpt>
      <trkpt lat="44.78102" lon="3.63014">
        <ele>1187</ele>
        <time>2020-03-22T18:28:23Z</time>
      </trkpt>
      <trkpt lat="44.7824" lon="3.6316">
        <ele>1183</ele>
        <time>2020-03-22T18:29:03Z</time>
      </trkpt>
      <trkpt lat="44.78379" lon="3.63287">
        <ele>1173</ele>
        <time>2020-03-22T18:29:42Z</time>
      </trkpt>
      <trkpt lat="44.78317" lon="3.63366">
        <ele>1167</ele>
        <time>2020-03-22T18:30:01Z</time>
      </trkpt>
    </trkseg>
  </trk>
</gpx>